createdAt,value
2022-10-17T00:00:42.414Z,8.48
2022-10-17T00:03:09.910Z,9.85
2022-10-17T00:05:46.585Z,9.20
2022-10-17T00:08:15.721Z,9.38
2022-10-17T00:10:43.271Z,11.57
2022-10-17T00:13:11.697Z,11.18
2022-10-17T00:15:39.040Z,10.48
2022-10-17T00:18:06.313Z,10.00
2022-10-17T00:20:35.967Z,11.93
2022-10-17T00:23:03.154Z,8.95
2022-10-17T00:25:30.464Z,10.55
2022-10-17T00:27:57.738Z,8.10
2022-10-17T00:30:25.080Z,9.95
2022-10-17T00:32:52.343Z,9.80
2022-10-17T00:35:19.672Z,10.90
2022-10-17T00:37:48.313Z,11.25
2022-10-17T00:40:15.609Z,9.15
2022-10-17T00:42:42.863Z,12.10
2022-10-17T00:45:28.148Z,13.10
2022-10-17T00:48:08.606Z,8.82
2022-10-17T00:50:38.836Z,9.27
2022-10-17T00:53:08.287Z,7.38
2022-10-17T00:55:42.525Z,9.55
2022-10-17T00:58:09.841Z,10.85
2022-10-17T01:00:37.546Z,12.13
2022-10-17T01:03:05.284Z,8.73
2022-10-17T01:05:33.052Z,9.48
2022-10-17T01:08:00.812Z,9.85
2022-10-17T01:10:35.099Z,7.32
2022-10-17T01:13:11.768Z,8.48
2022-10-17T01:15:53.012Z,9.27
2022-10-17T01:18:49.345Z,9.13
2022-10-17T01:21:39.786Z,9.30
2022-10-17T01:24:25.637Z,12.23
2022-10-17T01:27:19.686Z,7.20
2022-10-17T01:29:53.089Z,9.05
2022-10-17T01:32:29.895Z,9.18
2022-10-17T01:35:12.458Z,10.30
2022-10-17T01:40:16.119Z,11.48
2022-10-17T01:43:02.773Z,14.38
2022-10-17T01:45:35.334Z,11.60
2022-10-17T01:48:08.594Z,8.90
2022-10-17T01:50:41.850Z,8.98
2022-10-17T01:53:30.113Z,7.47
2022-10-17T01:55:59.547Z,10.65
2022-10-17T01:58:49.180Z,9.48
2022-10-17T02:01:20.116Z,9.13
2022-10-17T02:03:49.718Z,8.50
2022-10-17T02:06:16.998Z,9.35
2022-10-17T02:08:47.415Z,8.63
2022-10-17T02:11:17.097Z,11.82
2022-10-17T02:16:49.019Z,13.32
2022-10-17T02:19:38.698Z,10.88
2022-10-17T02:22:25.157Z,9.95
2022-10-17T02:25:06.991Z,9.77
2022-10-17T02:27:43.930Z,8.18
2022-10-17T02:30:48.864Z,11.05
2022-10-17T02:33:29.397Z,13.88
2022-10-17T02:36:03.116Z,9.40
2022-10-17T02:38:31.967Z,9.40
2022-10-17T02:41:00.667Z,10.45
2022-10-17T02:43:28.944Z,11.93
2022-10-17T02:45:58.250Z,14.38
2022-10-17T02:48:34.830Z,9.85
2022-10-17T02:51:13.421Z,8.40
2022-10-17T02:53:51.895Z,11.32
2022-10-17T02:56:21.553Z,9.45
2022-10-17T02:58:56.078Z,9.02
2022-10-17T03:01:24.558Z,11.55
2022-10-17T03:03:51.799Z,9.27
2022-10-17T03:06:19.050Z,7.20
2022-10-17T03:08:46.609Z,9.52
2022-10-17T03:11:13.955Z,9.77
2022-10-17T03:13:41.215Z,14.30
2022-10-17T03:16:08.692Z,7.75
2022-10-17T03:18:36.483Z,7.68
2022-10-17T03:21:04.625Z,9.98
2022-10-17T03:23:32.024Z,13.50
2022-10-17T03:26:04.612Z,8.85
2022-10-17T03:31:00.263Z,9.57
2022-10-17T03:33:27.631Z,9.95
2022-10-17T03:35:55.030Z,10.63
2022-10-17T03:38:22.545Z,12.02
2022-10-17T03:40:56.526Z,9.50
2022-10-17T03:43:23.962Z,9.63
2022-10-17T03:45:51.172Z,10.43
2022-10-17T03:48:18.507Z,11.13
2022-10-17T03:50:45.746Z,8.15
2022-10-17T03:53:13.722Z,10.65
2022-10-17T03:55:41.183Z,9.02
2022-10-17T03:58:08.641Z,12.88
2022-10-17T04:00:36.775Z,9.70
2022-10-17T04:03:04.120Z,9.35
2022-10-17T04:05:32.098Z,9.77
2022-10-17T04:08:02.401Z,9.02
2022-10-17T04:13:19.294Z,12.98
2022-10-17T04:16:05.340Z,12.55
2022-10-17T04:18:33.691Z,9.38
2022-10-17T04:21:05.967Z,10.18
2022-10-17T04:23:33.989Z,9.52
2022-10-17T04:26:10.465Z,12.43
2022-10-17T04:31:10.148Z,12.77
2022-10-17T04:33:57.311Z,12.98
2022-10-17T04:36:24.932Z,8.13
2022-10-17T04:38:52.349Z,8.55
2022-10-17T04:41:20.384Z,8.93
2022-10-17T04:43:50.960Z,12.00
2022-10-17T04:46:20.841Z,7.65
2022-10-17T04:48:49.010Z,9.43
2022-10-17T04:51:20.682Z,9.95
2022-10-17T04:54:11.269Z,8.48
2022-10-17T04:56:41.948Z,8.23
2022-10-17T04:59:09.298Z,8.40
2022-10-17T05:01:38.993Z,11.13
2022-10-17T05:04:07.184Z,10.77
2022-10-17T05:06:34.863Z,8.40
2022-10-17T05:09:37.380Z,12.30
2022-10-17T05:12:08.092Z,10.65
2022-10-17T05:14:39.322Z,12.35
2022-10-17T05:17:06.730Z,11.38
2022-10-17T05:19:35.215Z,10.55
2022-10-17T05:22:02.525Z,10.98
2022-10-17T05:24:29.890Z,15.75
2022-10-17T05:26:57.103Z,13.57
2022-10-17T05:29:24.506Z,11.55
2022-10-17T05:31:58.191Z,10.18
2022-10-17T05:34:25.750Z,12.02
2022-10-17T05:36:53.005Z,9.50
2022-10-17T05:39:23.490Z,10.38
2022-10-17T05:41:52.584Z,12.65
2022-10-17T05:44:19.918Z,10.13
2022-10-17T05:46:53.501Z,10.55
2022-10-17T05:49:32.689Z,8.98
2022-10-17T05:52:08.801Z,10.45
2022-10-17T05:54:47.029Z,12.98
2022-10-17T05:57:14.367Z,10.65
2022-10-17T05:59:41.865Z,8.65
2022-10-17T06:02:13.976Z,10.38
2022-10-17T06:04:45.738Z,10.52
2022-10-17T06:07:14.806Z,13.98
2022-10-17T06:12:18.118Z,9.45
2022-10-17T06:14:46.564Z,10.52
2022-10-17T06:17:16.386Z,8.95
2022-10-17T06:19:45.682Z,12.32
2022-10-17T06:22:15.392Z,8.75
2022-10-17T06:24:43.314Z,10.40
2022-10-17T06:27:12.335Z,11.13
2022-10-17T06:29:42.059Z,8.88
2022-10-17T06:32:12.705Z,10.63
2022-10-17T06:34:43.467Z,9.75
2022-10-17T06:37:11.480Z,9.32
2022-10-17T06:39:40.681Z,14.50
2022-10-17T06:42:12.856Z,9.88
2022-10-17T06:45:00.504Z,9.13
2022-10-17T06:47:43.092Z,9.57
2022-10-17T06:50:42.539Z,14.43
2022-10-17T06:53:17.222Z,7.95
2022-10-17T06:55:44.720Z,15.95
2022-10-17T06:58:24.522Z,10.63
2022-10-17T07:01:13.995Z,9.88
2022-10-17T07:03:43.753Z,10.63
2022-10-17T07:06:12.498Z,10.05
2022-10-17T07:08:45.685Z,12.43
2022-10-17T07:11:18.535Z,9.60
2022-10-17T07:13:46.373Z,12.55
2022-10-17T07:16:15.804Z,9.25
2022-10-17T07:18:49.184Z,11.23
2022-10-17T07:21:18.071Z,8.82
2022-10-17T07:23:45.679Z,9.07
2022-10-17T07:26:15.877Z,11.52
2022-10-17T07:28:45.862Z,10.88
2022-10-17T07:31:39.305Z,10.75
2022-10-17T07:34:06.745Z,13.90
2022-10-17T07:36:34.138Z,13.18
2022-10-17T07:39:05.514Z,14.88
2022-10-17T07:41:33.758Z,10.88
2022-10-17T07:44:01.307Z,11.02
2022-10-17T07:46:34.118Z,10.45
2022-10-17T07:49:01.625Z,12.85
2022-10-17T07:51:29.653Z,10.77
2022-10-17T07:53:56.905Z,10.68
2022-10-17T07:56:24.956Z,12.55
2022-10-17T07:58:53.468Z,11.57
2022-10-17T08:01:20.741Z,11.65
2022-10-17T08:03:51.420Z,10.95
2022-10-17T08:06:18.938Z,9.73
2022-10-17T08:08:46.500Z,8.50
2022-10-17T08:11:15.320Z,14.75
2022-10-17T08:13:42.956Z,7.63
2022-10-17T08:16:12.779Z,11.68
2022-10-17T08:18:41.643Z,15.40
2022-10-17T08:21:09.383Z,8.57
2022-10-17T08:23:37.303Z,8.48
2022-10-17T08:26:08.253Z,8.88
2022-10-17T08:28:36.596Z,7.75
2022-10-17T08:31:09.462Z,11.65
2022-10-17T08:33:37.153Z,13.43
2022-10-17T08:36:05.879Z,8.38
2022-10-17T08:38:35.553Z,10.10
2022-10-17T08:41:14.873Z,10.65
2022-10-17T08:43:51.335Z,9.07
2022-10-17T08:46:20.191Z,12.27
2022-10-17T08:48:50.012Z,10.05
2022-10-17T08:51:40.454Z,9.52
2022-10-17T08:54:18.589Z,10.98
2022-10-17T08:56:50.068Z,9.00
2022-10-17T08:59:29.188Z,10.55
2022-10-17T09:02:17.723Z,12.45
2022-10-17T09:04:59.188Z,11.65
2022-10-17T09:07:40.169Z,7.47
2022-10-17T09:10:21.094Z,8.00
2022-10-17T09:12:48.314Z,11.20
2022-10-17T09:15:30.519Z,7.88
2022-10-17T09:18:02.898Z,5.45
2022-10-17T09:20:54.118Z,7.50
2022-10-17T09:23:28.237Z,6.27
2022-10-17T09:25:59.136Z,8.30
2022-10-17T09:28:36.054Z,6.82
2022-10-17T09:31:17.078Z,6.97
2022-10-17T09:33:54.263Z,5.78
2022-10-17T09:36:28.686Z,5.93
2022-10-17T09:38:59.904Z,6.72
2022-10-17T09:41:48.518Z,5.80
2022-10-17T09:44:34.524Z,8.85
2022-10-17T09:47:41.558Z,7.93
2022-10-17T09:50:23.851Z,7.07
2022-10-17T09:52:52.711Z,8.43
2022-10-17T09:55:27.806Z,10.10
2022-10-17T09:57:58.530Z,6.60
2022-10-17T10:00:36.654Z,6.93
2022-10-17T10:03:14.442Z,6.65
2022-10-17T10:05:43.022Z,7.80
2022-10-17T10:08:16.658Z,6.55
2022-10-17T10:10:44.527Z,7.28
2022-10-17T10:13:15.013Z,7.70
2022-10-17T10:15:47.239Z,6.20
2022-10-17T10:18:34.005Z,5.88
2022-10-17T10:21:09.468Z,7.05
2022-10-17T10:23:41.997Z,7.45
2022-10-17T10:26:28.196Z,8.60
2022-10-17T10:29:05.513Z,10.18
2022-10-17T10:31:40.569Z,6.90
2022-10-17T10:34:27.429Z,8.35
2022-10-17T10:36:58.402Z,6.68
2022-10-17T10:39:38.992Z,8.77
2022-10-17T10:42:18.172Z,8.18
2022-10-17T10:44:46.579Z,9.52
2022-10-17T10:47:21.822Z,7.80
2022-10-17T10:49:52.212Z,7.30
2022-10-17T10:52:45.408Z,5.97
2022-10-17T10:55:23.188Z,6.28
2022-10-17T10:57:55.210Z,6.25
2022-10-17T11:00:27.153Z,7.07
2022-10-17T11:03:12.965Z,5.88
2022-10-17T11:06:06.154Z,10.48
2022-10-17T11:08:42.835Z,7.57
2022-10-17T11:11:26.564Z,7.97
2022-10-17T11:14:16.197Z,8.02
2022-10-17T11:17:22.909Z,8.02
2022-10-17T11:20:07.463Z,10.02
2022-10-17T11:22:58.205Z,10.25
2022-10-17T11:25:33.033Z,6.22
2022-10-17T11:28:04.701Z,10.98
2022-10-17T11:30:46.434Z,7.05
2022-10-17T11:33:24.196Z,9.93
2022-10-17T11:35:54.587Z,8.27
2022-10-17T11:38:30.801Z,10.07
2022-10-17T11:41:00.251Z,8.40
2022-10-17T11:43:42.974Z,6.53
2022-10-17T11:46:19.291Z,6.95
2022-10-17T11:49:19.811Z,7.97
2022-10-17T11:52:51.321Z,7.03
2022-10-17T11:55:23.547Z,6.13
2022-10-17T11:58:08.882Z,7.68
2022-10-17T12:01:02.171Z,6.32
2022-10-17T12:04:00.746Z,10.13
2022-10-17T12:06:53.063Z,5.93
2022-10-17T12:09:40.947Z,6.75
2022-10-17T12:12:08.864Z,7.35
2022-10-17T12:14:46.860Z,9.73
2022-10-17T12:17:39.209Z,8.52
2022-10-17T12:20:28.492Z,6.40
2022-10-17T12:23:12.901Z,8.25
2022-10-17T12:25:57.085Z,8.38
2022-10-17T12:28:39.528Z,8.60
2022-10-17T12:31:16.542Z,7.43
2022-10-17T12:33:46.864Z,7.72
2022-10-17T12:36:23.049Z,6.63
2022-10-17T12:38:52.788Z,6.60
2022-10-17T12:41:40.085Z,9.57
2022-10-17T12:44:14.039Z,8.23
2022-10-17T12:46:57.900Z,8.82
2022-10-17T12:49:38.883Z,8.57
2022-10-17T12:52:22.708Z,6.47
2022-10-17T12:55:13.912Z,8.52
2022-10-17T12:57:50.577Z,8.25
2022-10-17T13:00:29.536Z,6.95
2022-10-17T13:03:02.601Z,6.68
2022-10-17T13:05:36.120Z,7.38
2022-10-17T13:08:07.426Z,6.57
2022-10-17T13:10:40.646Z,8.32
2022-10-17T13:13:18.414Z,6.47
2022-10-17T13:15:50.486Z,7.30
2022-10-17T13:18:22.076Z,6.93
2022-10-17T13:21:00.005Z,7.05
2022-10-17T13:23:49.386Z,7.10
2022-10-17T13:26:20.593Z,6.30
2022-10-17T13:29:01.911Z,6.78
2022-10-17T13:31:35.843Z,8.43
2022-10-17T13:34:06.093Z,6.68
2022-10-17T13:39:12.303Z,7.10
2022-10-17T13:41:41.384Z,8.27
2022-10-17T13:44:20.608Z,6.72
2022-10-17T13:46:48.631Z,8.35
2022-10-17T13:49:18.942Z,6.70
2022-10-17T13:51:49.049Z,8.75
2022-10-17T13:54:36.405Z,7.00
2022-10-17T13:57:05.616Z,7.15
2022-10-17T13:59:43.638Z,8.85
2022-10-17T14:02:26.988Z,6.82
2022-10-17T14:05:18.932Z,7.93
2022-10-17T14:08:12.999Z,8.77
2022-10-17T14:10:42.383Z,7.00
2022-10-17T14:13:28.111Z,6.97
2022-10-17T14:15:57.567Z,7.28
2022-10-17T14:18:36.391Z,9.23
2022-10-17T14:24:25.985Z,8.07
2022-10-17T14:29:31.271Z,8.23
2022-10-17T14:32:10.447Z,6.10
2022-10-17T14:34:40.632Z,6.70
2022-10-17T14:40:04.721Z,6.40
2022-10-17T14:42:32.432Z,6.30
2022-10-17T14:45:08.325Z,6.25
2022-10-17T14:47:43.721Z,7.60
2022-10-17T14:50:11.436Z,6.57
2022-10-17T14:52:39.145Z,8.98
2022-10-17T14:55:27.658Z,6.63
2022-10-17T14:57:55.183Z,6.80
2022-10-17T15:00:23.907Z,9.13
2022-10-17T15:02:52.793Z,8.48
2022-10-17T15:05:21.138Z,10.95
2022-10-17T15:07:48.594Z,7.05
2022-10-17T15:10:33.376Z,6.68
2022-10-17T15:13:27.670Z,8.10
2022-10-17T15:15:52.223Z,7.38
2022-10-17T15:20:46.954Z,6.88
2022-10-17T15:23:14.225Z,7.15
2022-10-17T15:25:41.465Z,7.57
2022-10-17T15:28:11.731Z,7.10
2022-10-17T15:30:39.333Z,6.97
2022-10-17T15:33:06.672Z,7.53
2022-10-17T15:35:33.985Z,7.57
2022-10-17T15:38:01.395Z,7.03
2022-10-17T15:40:30.843Z,6.80
2022-10-17T15:42:58.352Z,6.65
2022-10-17T15:45:25.807Z,9.23
2022-10-17T15:47:56.213Z,8.25
2022-10-17T15:50:23.516Z,10.23
2022-10-17T15:52:51.232Z,8.32
2022-10-17T15:55:19.656Z,8.65
2022-10-17T15:57:48.351Z,8.68
2022-10-17T16:00:19.073Z,10.20
2022-10-17T16:02:47.017Z,10.75
2022-10-17T16:05:26.182Z,14.25
2022-10-17T16:07:54.036Z,8.70
2022-10-17T16:10:23.032Z,12.40
2022-10-17T16:12:50.719Z,10.48
2022-10-17T16:15:23.738Z,11.90
2022-10-17T16:17:55.881Z,12.25
2022-10-17T16:20:24.552Z,8.90
2022-10-17T16:22:59.783Z,12.27
2022-10-17T16:25:29.689Z,14.45
2022-10-17T16:27:58.741Z,9.73
2022-10-17T16:30:28.145Z,8.95
2022-10-17T16:32:56.021Z,9.77
2022-10-17T16:35:26.490Z,10.35
2022-10-17T16:37:54.346Z,13.38
2022-10-17T16:40:22.299Z,9.88
2022-10-17T16:42:49.705Z,12.45
2022-10-17T16:45:19.991Z,14.18
2022-10-17T16:47:47.924Z,13.00
2022-10-17T16:50:15.613Z,12.35
2022-10-17T16:52:43.233Z,12.30
2022-10-17T16:55:10.855Z,11.75
2022-10-17T16:57:38.346Z,12.10
2022-10-17T17:00:07.672Z,11.15
2022-10-17T17:02:35.134Z,8.77
2022-10-17T17:05:02.522Z,11.50
2022-10-17T17:07:30.447Z,12.35
2022-10-17T17:09:57.912Z,11.43
2022-10-17T17:12:25.255Z,16.17
2022-10-17T17:14:52.551Z,11.43
2022-10-17T17:17:30.656Z,13.02
2022-10-17T17:20:04.887Z,12.32
2022-10-17T17:22:32.252Z,10.70
2022-10-17T17:24:59.506Z,13.82
2022-10-17T17:27:28.897Z,13.15
2022-10-17T17:29:56.449Z,14.70
2022-10-17T17:32:23.717Z,15.30
2022-10-17T17:34:51.115Z,15.02
2022-10-17T17:37:18.441Z,12.43
2022-10-17T17:39:45.672Z,16.00
2022-10-17T17:42:12.996Z,29.30
2022-10-17T17:44:40.428Z,14.82
2022-10-17T17:47:08.145Z,12.50
2022-10-17T17:49:35.578Z,15.77
2022-10-17T17:54:30.194Z,13.00
2022-10-17T17:56:57.699Z,12.45
2022-10-17T17:59:25.025Z,14.50
2022-10-17T18:01:52.716Z,13.63
2022-10-17T18:04:20.248Z,12.00
2022-10-17T18:06:47.556Z,12.68
2022-10-17T18:09:14.923Z,12.40
2022-10-17T18:11:42.228Z,11.73
2022-10-17T18:14:13.207Z,14.18
2022-10-17T18:16:41.080Z,11.20
2022-10-17T18:19:10.617Z,11.25
2022-10-17T18:21:38.310Z,11.20
2022-10-17T18:24:06.390Z,12.98
2022-10-17T18:26:34.567Z,11.15
2022-10-17T18:29:02.396Z,10.73
2022-10-17T18:31:32.381Z,8.45
2022-10-17T18:34:00.419Z,11.80
2022-10-17T18:36:29.426Z,10.77
2022-10-17T18:38:57.125Z,14.75
2022-10-17T18:41:25.983Z,11.07
2022-10-17T18:43:55.034Z,12.00
2022-10-17T18:46:28.729Z,13.95
2022-10-17T18:48:56.646Z,14.50
2022-10-17T18:51:25.642Z,12.32
2022-10-17T18:53:56.101Z,11.88
2022-10-17T18:56:23.773Z,12.32
2022-10-17T18:58:51.157Z,11.88
2022-10-17T19:01:22.103Z,13.10
2022-10-17T19:03:52.168Z,17.43
2022-10-17T19:06:28.082Z,17.00
2022-10-17T19:08:55.308Z,14.07
2022-10-17T19:11:25.655Z,17.92
2022-10-17T19:13:54.076Z,13.88
2022-10-17T19:16:23.857Z,16.00
2022-10-17T19:18:53.006Z,15.48
2022-10-17T19:21:22.030Z,14.18
2022-10-17T19:23:55.337Z,15.00
2022-10-17T19:26:24.488Z,12.68
2022-10-17T19:28:53.887Z,15.65
2022-10-17T19:31:26.798Z,13.55
2022-10-17T19:33:56.048Z,13.90
2022-10-17T19:36:28.873Z,14.95
2022-10-17T19:39:00.052Z,15.75
2022-10-17T19:41:28.183Z,15.13
2022-10-17T19:43:55.592Z,11.18
2022-10-17T19:46:25.391Z,13.55
2022-10-17T19:48:53.527Z,14.57
2022-10-17T19:51:26.475Z,13.50
2022-10-17T19:53:55.818Z,18.02
2022-10-17T19:56:24.672Z,16.05
2022-10-17T19:58:52.257Z,13.30
2022-10-17T20:01:22.148Z,12.65
2022-10-17T20:03:50.170Z,14.00
2022-10-17T20:06:18.354Z,12.82
2022-10-17T20:08:46.168Z,15.13
2022-10-17T20:11:17.571Z,14.85
2022-10-17T20:13:45.203Z,12.75
2022-10-17T20:16:18.496Z,16.48
2022-10-17T20:18:46.181Z,15.27
2022-10-17T20:21:16.421Z,12.38
2022-10-17T20:23:43.832Z,13.15
2022-10-17T20:26:39.951Z,14.07
2022-10-17T20:29:03.844Z,13.00
2022-10-17T20:31:31.391Z,12.18
2022-10-17T20:34:00.009Z,12.85
2022-10-17T20:36:27.339Z,15.35
2022-10-17T20:38:58.927Z,13.85
2022-10-17T20:41:26.793Z,11.00
2022-10-17T20:43:55.308Z,13.90
2022-10-17T20:46:36.231Z,14.43
2022-10-17T20:49:07.927Z,13.60
2022-10-17T20:51:36.325Z,20.07
2022-10-17T20:54:04.270Z,18.80
2022-10-17T20:56:32.837Z,19.77
2022-10-17T20:59:03.736Z,13.95
2022-10-17T21:01:32.680Z,13.88
2022-10-17T21:04:15.811Z,14.43
2022-10-17T21:06:48.278Z,15.00
2022-10-17T21:09:15.542Z,13.20
2022-10-17T21:11:43.510Z,12.45
2022-10-17T21:14:12.093Z,12.85
2022-10-17T21:16:41.343Z,13.95
2022-10-17T21:19:10.728Z,15.50
2022-10-17T21:21:40.800Z,15.32
2022-10-17T21:24:16.928Z,12.38
2022-10-17T21:26:45.725Z,14.95
2022-10-17T21:29:14.078Z,15.07
2022-10-17T21:31:43.674Z,15.88
2022-10-17T21:34:20.236Z,13.57
2022-10-17T21:36:48.429Z,13.00
2022-10-17T21:39:16.146Z,14.32
2022-10-17T21:41:44.377Z,15.63
2022-10-17T21:44:14.485Z,17.90
2022-10-17T21:46:42.181Z,17.15
2022-10-17T21:49:12.485Z,17.23
2022-10-17T21:51:40.379Z,14.25
2022-10-17T21:54:08.093Z,15.68
2022-10-17T21:56:36.610Z,13.65
2022-10-17T21:59:04.909Z,16.95
2022-10-17T22:01:35.117Z,18.63
2022-10-17T22:04:05.126Z,13.38
2022-10-17T22:06:40.145Z,14.73
2022-10-17T22:09:28.423Z,16.45
2022-10-17T22:11:57.006Z,14.50
2022-10-17T22:14:26.906Z,12.10
2022-10-17T22:16:55.331Z,13.45
2022-10-17T22:19:25.646Z,11.52
2022-10-17T22:21:54.068Z,17.15
2022-10-17T22:24:23.167Z,14.88
2022-10-17T22:26:50.772Z,13.13
2022-10-17T22:29:18.483Z,15.70
2022-10-17T22:31:46.097Z,13.80
2022-10-17T22:34:16.007Z,11.85
2022-10-17T22:36:44.101Z,14.05
2022-10-17T22:39:14.566Z,15.18
2022-10-17T22:41:41.851Z,13.55
2022-10-17T22:44:09.529Z,14.10
2022-10-17T22:46:36.851Z,12.98
2022-10-17T22:49:04.427Z,13.57
2022-10-17T22:51:31.921Z,15.15
2022-10-17T22:53:59.309Z,18.25
2022-10-17T22:56:26.820Z,17.02
2022-10-17T22:58:54.338Z,13.02
2022-10-17T23:01:24.736Z,19.52
2022-10-17T23:03:53.166Z,14.02
2022-10-17T23:06:21.172Z,13.52
2022-10-17T23:08:48.631Z,14.68
2022-10-17T23:11:16.628Z,13.13
2022-10-17T23:13:43.997Z,12.80
2022-10-17T23:16:11.598Z,13.50
2022-10-17T23:18:39.624Z,14.27
2022-10-17T23:21:08.156Z,16.52
2022-10-17T23:23:36.222Z,13.48
2022-10-17T23:26:06.317Z,20.70
2022-10-17T23:28:35.787Z,12.82
2022-10-17T23:31:18.778Z,12.75
2022-10-17T23:33:48.919Z,14.95
2022-10-17T23:36:18.715Z,14.27
2022-10-17T23:38:47.121Z,12.38
2022-10-17T23:41:15.312Z,17.85
2022-10-17T23:43:43.413Z,16.02
2022-10-17T23:46:10.757Z,12.82
2022-10-17T23:48:38.964Z,11.55
2022-10-17T23:51:07.624Z,15.00
2022-10-17T23:53:36.206Z,12.63
2022-10-17T23:56:04.272Z,12.23
2022-10-17T23:58:31.716Z,13.13
